createdAt,value
2019-04-04T00:01:06.309Z,36.30
2019-04-04T00:03:34.633Z,32.67
2019-04-04T00:06:02.909Z,33.37
2019-04-04T00:08:32.177Z,37.20
2019-04-04T00:11:00.529Z,35.17
2019-04-04T00:13:28.915Z,33.03
2019-04-04T00:16:00.340Z,32.60
2019-04-04T00:18:28.644Z,39.13
2019-04-04T00:20:56.932Z,34.50
2019-04-04T00:23:25.243Z,34.60
2019-04-04T00:25:53.517Z,33.00
2019-04-04T00:28:21.908Z,30.60
2019-04-04T00:30:50.199Z,42.60
2019-04-04T00:33:18.488Z,42.57
2019-04-04T00:35:46.900Z,34.60
2019-04-04T00:38:15.219Z,37.80
2019-04-04T00:40:43.536Z,38.67
2019-04-04T00:43:11.822Z,38.83
2019-04-04T00:45:40.129Z,32.63
2019-04-04T00:48:08.406Z,35.93
2019-04-04T00:50:37.329Z,33.90
2019-04-04T00:53:05.693Z,43.77
2019-04-04T00:55:34.005Z,35.50
2019-04-04T00:58:02.690Z,33.33
2019-04-04T01:00:31.157Z,35.87
2019-04-04T01:02:59.454Z,34.67
2019-04-04T01:05:27.732Z,37.07
2019-04-04T01:07:56.042Z,39.57
2019-04-04T01:10:24.333Z,39.23
2019-04-04T01:12:52.784Z,34.63
2019-04-04T01:15:21.079Z,36.60
2019-04-04T01:17:49.413Z,36.17
2019-04-04T01:20:20.297Z,38.30
2019-04-04T01:22:48.105Z,37.63
2019-04-04T01:25:16.416Z,34.00
2019-04-04T01:27:45.610Z,36.47
2019-04-04T01:30:13.911Z,37.57
2019-04-04T01:32:42.195Z,36.27
2019-04-04T01:35:10.621Z,37.37
2019-04-04T01:37:38.898Z,39.70
2019-04-04T01:40:07.184Z,38.07
2019-04-04T01:42:37.888Z,37.40
2019-04-04T01:45:07.086Z,40.50
2019-04-04T01:47:35.395Z,41.63
2019-04-04T01:50:03.823Z,40.43
2019-04-04T01:52:32.100Z,36.10
2019-04-04T01:55:03.027Z,40.63
2019-04-04T01:57:30.434Z,36.10
2019-04-04T01:59:58.766Z,37.87
2019-04-04T02:02:27.414Z,35.67
2019-04-04T02:04:57.443Z,35.80
2019-04-04T02:07:27.848Z,33.97
2019-04-04T02:09:56.523Z,32.97
2019-04-04T02:12:24.838Z,33.30
2019-04-04T02:14:53.117Z,35.27
2019-04-04T02:17:22.310Z,37.10
2019-04-04T02:19:51.179Z,37.53
2019-04-04T02:22:19.473Z,34.23
2019-04-04T02:24:47.783Z,37.63
2019-04-04T02:27:18.832Z,34.20
2019-04-04T02:29:47.146Z,33.97
2019-04-04T02:32:17.070Z,32.80
2019-04-04T02:34:45.485Z,35.87
2019-04-04T02:37:13.774Z,33.40
2019-04-04T02:39:42.422Z,33.17
2019-04-04T02:42:10.749Z,33.27
2019-04-04T02:44:39.058Z,35.30
2019-04-04T02:47:07.327Z,35.67
2019-04-04T02:49:35.616Z,34.70
2019-04-04T02:52:03.921Z,34.83
2019-04-04T02:54:32.275Z,35.17
2019-04-04T02:57:00.562Z,31.33
2019-04-04T02:59:28.872Z,34.33
2019-04-04T03:01:57.159Z,35.27
2019-04-04T03:04:25.539Z,34.90
2019-04-04T03:06:57.381Z,37.30
2019-04-04T03:09:23.862Z,33.90
2019-04-04T03:11:54.030Z,35.43
2019-04-04T03:14:22.292Z,30.57
2019-04-04T03:16:50.883Z,30.63
2019-04-04T03:19:19.155Z,26.37
2019-04-04T03:21:47.517Z,27.47
2019-04-04T03:24:15.874Z,30.70
2019-04-04T03:26:44.185Z,29.13
2019-04-04T03:29:12.467Z,29.70
2019-04-04T03:31:40.872Z,23.80
2019-04-04T03:34:12.180Z,32.63
2019-04-04T03:36:39.784Z,30.30
2019-04-04T03:39:08.446Z,29.50
2019-04-04T03:41:36.723Z,34.67
2019-04-04T03:44:05.108Z,30.33
2019-04-04T03:46:38.218Z,32.73
2019-04-04T03:49:03.491Z,33.53
2019-04-04T03:51:32.182Z,29.03
2019-04-04T03:54:02.719Z,33.73
2019-04-04T03:56:38.835Z,28.97
2019-04-04T03:59:01.246Z,33.43
2019-04-04T04:01:29.614Z,28.13
2019-04-04T04:03:57.960Z,25.63
2019-04-04T04:06:27.194Z,26.20
2019-04-04T04:08:55.595Z,31.00
2019-04-04T04:11:23.876Z,27.60
2019-04-04T04:13:52.188Z,24.67
2019-04-04T04:16:21.343Z,31.17
2019-04-04T04:18:54.001Z,25.87
2019-04-04T04:21:19.672Z,29.43
2019-04-04T04:23:49.949Z,30.23
2019-04-04T04:26:18.407Z,39.10
2019-04-04T04:28:46.692Z,49.53
2019-04-04T04:31:15.567Z,38.70
2019-04-04T04:33:44.882Z,35.10
2019-04-04T04:36:15.645Z,32.60
2019-04-04T04:38:43.297Z,33.60
2019-04-04T04:41:12.626Z,35.67
2019-04-04T04:43:41.813Z,30.50
2019-04-04T04:46:10.111Z,34.93
2019-04-04T04:48:38.387Z,31.80
2019-04-04T04:51:06.730Z,34.47
2019-04-04T04:53:35.018Z,36.53
2019-04-04T04:56:03.461Z,29.00
2019-04-04T04:58:31.738Z,30.80
2019-04-04T05:01:00.049Z,33.70
2019-04-04T05:03:28.461Z,32.17
2019-04-04T05:06:00.433Z,31.03
2019-04-04T05:08:26.815Z,30.33
2019-04-04T05:10:55.814Z,30.37
2019-04-04T05:13:26.117Z,30.90
2019-04-04T05:15:54.482Z,23.03
2019-04-04T05:18:23.457Z,30.70
2019-04-04T05:20:51.752Z,27.77
2019-04-04T05:23:20.046Z,26.77
2019-04-04T05:25:53.696Z,25.93
2019-04-04T05:28:18.668Z,31.90
2019-04-04T05:30:47.788Z,27.33
2019-04-04T05:33:16.313Z,26.00
2019-04-04T05:35:45.312Z,25.33
2019-04-04T05:38:13.589Z,22.53
2019-04-04T05:40:41.923Z,23.20
2019-04-04T05:43:10.223Z,18.03
2019-04-04T05:45:38.495Z,17.83
2019-04-04T05:48:06.814Z,18.57
2019-04-04T05:50:35.124Z,20.80
2019-04-04T05:53:04.195Z,26.30
2019-04-04T05:55:33.219Z,29.80
2019-04-04T05:58:02.113Z,33.00
2019-04-04T06:00:30.433Z,30.43
2019-04-04T06:02:58.768Z,37.93
2019-04-04T06:05:27.816Z,34.80
2019-04-04T06:07:56.331Z,40.60
2019-04-04T06:10:24.621Z,38.80
2019-04-04T06:12:56.266Z,36.67
2019-04-04T06:15:25.622Z,38.97
2019-04-04T06:17:53.983Z,36.13
2019-04-04T06:20:23.165Z,34.77
2019-04-04T06:22:52.017Z,44.67
2019-04-04T06:25:20.888Z,42.73
2019-04-04T06:27:49.183Z,41.50
2019-04-04T06:30:18.175Z,35.70
2019-04-04T06:32:47.573Z,36.50
2019-04-04T06:35:16.172Z,46.63
2019-04-04T06:37:46.223Z,43.57
2019-04-04T06:40:16.288Z,36.20
2019-04-04T06:42:44.742Z,37.97
2019-04-04T06:45:15.244Z,33.57
2019-04-04T06:47:43.114Z,36.93
2019-04-04T06:50:11.418Z,44.47
2019-04-04T06:52:39.729Z,33.50
2019-04-04T06:55:08.618Z,34.10
2019-04-04T06:57:37.506Z,35.03
2019-04-04T07:00:09.067Z,30.40
2019-04-04T07:02:37.444Z,35.13
2019-04-04T07:05:07.134Z,39.07
2019-04-04T07:07:35.618Z,33.93
2019-04-04T07:10:05.569Z,35.53
2019-04-04T07:12:33.858Z,29.97
2019-04-04T07:15:02.160Z,34.13
2019-04-04T07:17:30.502Z,35.87
2019-04-04T07:19:58.822Z,26.07
2019-04-04T07:22:29.374Z,33.00
2019-04-04T07:24:57.682Z,31.90
2019-04-04T07:27:25.969Z,32.43
2019-04-04T07:29:56.898Z,32.00
2019-04-04T07:32:25.686Z,32.07
2019-04-04T07:34:53.972Z,32.20
2019-04-04T07:37:22.767Z,29.00
2019-04-04T07:39:51.128Z,28.70
2019-04-04T07:42:19.440Z,31.60
2019-04-04T07:44:50.756Z,29.37
2019-04-04T07:47:19.045Z,30.60
2019-04-04T07:49:47.367Z,34.67
2019-04-04T07:52:17.210Z,31.20
2019-04-04T07:54:45.836Z,29.33
2019-04-04T07:57:14.142Z,31.10
2019-04-04T07:59:42.428Z,33.13
2019-04-04T08:02:10.815Z,28.83
2019-04-04T08:04:39.135Z,28.53
2019-04-04T08:07:07.411Z,32.30
2019-04-04T08:09:35.730Z,34.17
2019-04-04T08:12:04.090Z,32.40
2019-04-04T08:14:32.816Z,29.17
2019-04-04T08:17:01.105Z,28.10
2019-04-04T08:19:29.470Z,27.03
2019-04-04T08:21:57.844Z,27.03
2019-04-04T08:24:26.202Z,29.53
2019-04-04T08:26:54.556Z,28.90
2019-04-04T08:29:22.914Z,28.23
2019-04-04T08:31:51.231Z,26.63
2019-04-04T08:34:19.595Z,26.63
2019-04-04T08:36:47.917Z,29.40
2019-04-04T08:39:16.202Z,31.30
2019-04-04T08:41:44.536Z,27.30
2019-04-04T08:44:12.862Z,27.50
2019-04-04T08:46:41.217Z,30.50
2019-04-04T08:49:09.527Z,27.77
2019-04-04T08:51:37.812Z,26.70
2019-04-04T08:54:06.120Z,25.23
2019-04-04T08:56:34.401Z,25.27
2019-04-04T08:59:02.724Z,21.77
2019-04-04T09:01:31.032Z,27.17
2019-04-04T09:03:59.318Z,25.13
2019-04-04T09:06:27.629Z,25.97
2019-04-04T09:08:55.911Z,33.73
2019-04-04T09:11:24.245Z,22.83
2019-04-04T09:13:53.872Z,22.20
2019-04-04T09:16:22.177Z,21.37
2019-04-04T09:18:50.489Z,24.70
2019-04-04T09:21:19.339Z,28.70
2019-04-04T09:23:48.322Z,29.33
2019-04-04T09:26:16.636Z,26.40
2019-04-04T09:28:44.917Z,26.63
2019-04-04T09:31:13.233Z,23.00
2019-04-04T09:33:41.610Z,24.50
2019-04-04T09:36:10.659Z,21.97
2019-04-04T09:38:39.033Z,23.00
2019-04-04T09:41:07.488Z,27.37
2019-04-04T09:43:35.781Z,22.37
2019-04-04T09:46:04.078Z,26.23
2019-04-04T09:48:33.149Z,26.80
2019-04-04T09:51:01.431Z,18.60
2019-04-04T09:53:30.035Z,20.37
2019-04-04T09:56:01.039Z,20.97
2019-04-04T09:58:29.343Z,20.57
2019-04-04T10:00:57.735Z,25.80
2019-04-04T10:03:26.045Z,22.70
2019-04-04T10:05:54.398Z,23.53
2019-04-04T10:08:23.688Z,28.60
2019-04-04T10:10:52.378Z,20.80
2019-04-04T10:13:20.653Z,20.47
2019-04-04T10:15:48.962Z,14.53
2019-04-04T10:18:17.265Z,16.60
2019-04-04T10:20:45.567Z,16.20
2019-04-04T10:23:13.893Z,19.80
2019-04-04T10:25:42.763Z,16.37
2019-04-04T10:28:11.442Z,15.63
2019-04-04T10:30:39.721Z,15.43
2019-04-04T10:33:08.029Z,15.47
2019-04-04T10:35:36.318Z,15.10
2019-04-04T10:38:04.815Z,14.17
2019-04-04T10:40:33.093Z,12.47
2019-04-04T10:43:01.372Z,12.70
2019-04-04T10:45:29.669Z,13.50
2019-04-04T10:47:57.963Z,14.77
2019-04-04T10:50:26.338Z,9.53
2019-04-04T10:52:54.627Z,13.27
2019-04-04T10:55:22.928Z,10.20
2019-04-04T10:57:51.356Z,5.20
2019-04-04T11:00:19.644Z,2.93
2019-04-04T11:02:47.930Z,1.90
2019-04-04T11:05:16.230Z,2.10
2019-04-04T11:07:44.533Z,3.03
2019-04-04T11:10:12.807Z,3.70
2019-04-04T11:12:41.108Z,4.00
2019-04-04T11:15:09.388Z,3.43
2019-04-04T11:17:37.999Z,4.87
2019-04-04T11:20:06.867Z,4.73
2019-04-04T11:22:35.171Z,4.77
2019-04-04T11:25:03.486Z,4.07
2019-04-04T11:27:31.772Z,4.37
2019-04-04T11:30:00.255Z,5.10
2019-04-04T11:32:28.670Z,9.33
2019-04-04T11:34:56.958Z,6.47
2019-04-04T11:37:25.260Z,4.63
2019-04-04T11:39:54.985Z,6.40
2019-04-04T11:42:23.614Z,5.93
2019-04-04T11:44:51.884Z,7.37
2019-04-04T11:47:20.232Z,4.90
2019-04-04T11:49:48.500Z,5.23
2019-04-04T11:52:16.779Z,5.10
2019-04-04T11:55:01.291Z,5.83
2019-04-04T11:57:29.646Z,7.17
2019-04-04T11:59:58.632Z,5.13
2019-04-04T12:02:28.281Z,7.27
2019-04-04T12:04:57.952Z,4.37
2019-04-04T12:07:26.340Z,5.53
2019-04-04T12:10:06.726Z,4.60
2019-04-04T12:12:24.775Z,3.50
2019-04-04T12:14:53.049Z,5.03
2019-04-04T12:17:21.456Z,6.50
2019-04-04T12:19:49.728Z,9.53
2019-04-04T12:22:18.010Z,6.10
2019-04-04T12:24:46.336Z,5.50
2019-04-04T12:27:14.598Z,3.33
2019-04-04T12:29:43.002Z,5.87
2019-04-04T12:32:11.287Z,4.40
2019-04-04T12:34:39.579Z,7.73
2019-04-04T12:37:07.885Z,3.30
2019-04-04T12:39:36.187Z,3.40
2019-04-04T12:42:04.492Z,3.10
2019-04-04T12:44:32.865Z,2.83
2019-04-04T12:47:01.166Z,3.13
2019-04-04T12:49:29.749Z,4.70
2019-04-04T12:51:58.163Z,2.40
2019-04-04T12:54:26.443Z,3.13
2019-04-04T12:56:54.713Z,3.30
2019-04-04T12:59:23.026Z,4.20
2019-04-04T13:01:51.319Z,2.30
2019-04-04T13:04:30.652Z,4.03
2019-04-04T13:06:49.683Z,3.07
2019-04-04T13:09:18.133Z,1.93
2019-04-04T13:11:46.454Z,1.50
2019-04-04T13:14:14.766Z,1.40
2019-04-04T13:16:43.060Z,1.93
2019-04-04T13:19:11.472Z,2.40
2019-04-04T13:21:40.948Z,1.63
2019-04-04T13:24:09.228Z,2.57
2019-04-04T13:26:37.529Z,3.87
2019-04-04T13:29:05.809Z,1.87
2019-04-04T13:31:34.128Z,6.63
2019-04-04T13:34:02.402Z,2.43
2019-04-04T13:36:30.719Z,3.10
2019-04-04T13:38:58.997Z,3.40
2019-04-04T13:41:27.308Z,6.70
2019-04-04T13:43:56.153Z,2.63
2019-04-04T13:46:25.915Z,3.03
2019-04-04T13:48:55.209Z,4.50
2019-04-04T13:51:25.519Z,3.17
2019-04-04T13:53:53.516Z,5.70
2019-04-04T13:56:21.796Z,3.17
2019-04-04T13:58:50.091Z,4.40
2019-04-04T14:01:18.365Z,3.43
2019-04-04T14:03:46.674Z,2.57
2019-04-04T14:06:14.978Z,4.33
2019-04-04T14:08:45.708Z,3.03
2019-04-04T14:11:13.274Z,3.40
2019-04-04T14:13:41.567Z,2.53
2019-04-04T14:16:09.857Z,5.70
2019-04-04T14:18:40.087Z,4.30
2019-04-04T14:21:08.262Z,2.53
2019-04-04T14:23:36.563Z,4.43
2019-04-04T14:26:08.224Z,4.10
2019-04-04T14:28:36.484Z,3.20
2019-04-04T14:31:08.141Z,2.93
2019-04-04T14:33:37.927Z,6.40
2019-04-04T14:36:06.324Z,2.73
2019-04-04T14:38:34.716Z,2.50
2019-04-04T14:41:11.030Z,2.03
2019-04-04T14:43:32.966Z,6.17
2019-04-04T14:46:02.899Z,4.40
2019-04-04T14:48:31.204Z,3.03
2019-04-04T14:50:59.650Z,3.10
2019-04-04T14:53:27.910Z,3.77
2019-04-04T14:55:56.194Z,3.00
2019-04-04T14:58:25.365Z,7.90
2019-04-04T15:00:53.650Z,3.50
2019-04-04T15:03:22.714Z,3.10
2019-04-04T15:05:51.065Z,3.03
2019-04-04T15:08:19.364Z,2.50
2019-04-04T15:10:47.677Z,2.83
2019-04-04T15:13:16.052Z,4.50
2019-04-04T15:16:12.573Z,3.33
2019-04-04T15:18:42.737Z,4.70
2019-04-04T15:21:11.061Z,3.50
2019-04-04T15:23:39.332Z,5.87
2019-04-04T15:26:09.787Z,4.30
2019-04-04T15:28:37.640Z,4.83
2019-04-04T15:31:06.367Z,5.13
2019-04-04T15:33:34.649Z,3.43
2019-04-04T15:36:03.035Z,3.77
2019-04-04T15:38:31.351Z,4.27
2019-04-04T15:40:59.706Z,3.27
2019-04-04T15:43:27.971Z,3.20
2019-04-04T15:45:56.253Z,4.07
2019-04-04T15:48:24.578Z,5.57
2019-04-04T15:50:52.871Z,6.37
2019-04-04T15:53:21.153Z,4.83
2019-04-04T15:55:49.458Z,4.53
2019-04-04T15:58:17.747Z,5.40
2019-04-04T16:00:46.151Z,3.30
2019-04-04T16:03:17.789Z,5.17
2019-04-04T16:05:46.762Z,4.80
2019-04-04T16:08:15.071Z,4.57
2019-04-04T16:10:43.352Z,5.20
2019-04-04T16:13:11.658Z,6.63
2019-04-04T16:15:39.953Z,3.83
2019-04-04T16:18:08.295Z,4.20
2019-04-04T16:20:36.579Z,13.37
2019-04-04T16:23:04.858Z,5.87
2019-04-04T16:25:33.171Z,14.50
2019-04-04T16:28:02.027Z,8.43
2019-04-04T16:30:30.330Z,4.33
2019-04-04T16:32:58.675Z,5.97
2019-04-04T16:35:27.008Z,6.43
2019-04-04T16:37:55.289Z,5.90
2019-04-04T16:40:23.577Z,5.53
2019-04-04T16:42:51.884Z,10.30
2019-04-04T16:45:20.172Z,4.40
2019-04-04T16:47:48.956Z,3.80
2019-04-04T16:50:17.240Z,5.80
2019-04-04T16:52:45.562Z,4.43
2019-04-04T16:55:13.839Z,4.00
2019-04-04T16:57:43.540Z,6.67
2019-04-04T17:00:12.806Z,6.70
2019-04-04T17:02:41.211Z,5.20
2019-04-04T17:05:11.051Z,5.87
2019-04-04T17:07:39.718Z,10.47
2019-04-04T17:10:08.268Z,4.93
2019-04-04T17:12:37.254Z,8.37
2019-04-04T17:15:07.254Z,23.00
2019-04-04T17:17:35.622Z,21.47
2019-04-04T17:20:06.654Z,20.23
2019-04-04T17:22:35.035Z,21.80
2019-04-04T17:25:03.383Z,12.20
2019-04-04T17:27:31.668Z,9.50
2019-04-04T17:30:00.286Z,6.77
2019-04-04T17:32:29.518Z,8.43
2019-04-04T17:34:58.079Z,8.53
2019-04-04T17:37:27.107Z,8.73
2019-04-04T17:39:55.767Z,9.10
2019-04-04T17:42:30.221Z,17.63
2019-04-04T17:44:54.877Z,12.67
2019-04-04T17:47:23.878Z,21.03
2019-04-04T17:49:52.509Z,15.90
2019-04-04T17:52:21.002Z,16.03
2019-04-04T17:54:49.957Z,13.20
2019-04-04T17:57:21.321Z,13.47
2019-04-04T17:59:49.701Z,30.03
2019-04-04T18:02:18.349Z,38.73
2019-04-04T18:04:48.474Z,45.83
2019-04-04T18:07:16.678Z,28.17
2019-04-04T18:09:45.922Z,15.40
2019-04-04T18:12:16.792Z,17.70
2019-04-04T18:14:44.451Z,18.83
2019-04-04T18:17:12.927Z,13.03
2019-04-04T18:19:41.572Z,9.07
2019-04-04T18:22:10.141Z,11.00
2019-04-04T18:24:38.440Z,5.77
2019-04-04T18:27:07.154Z,9.93
2019-04-04T18:29:35.468Z,11.30
2019-04-04T18:32:03.866Z,8.60
2019-04-04T18:34:32.686Z,9.60
2019-04-04T18:37:01.472Z,15.80
2019-04-04T18:39:29.787Z,12.47
2019-04-04T18:41:58.073Z,10.27
2019-04-04T18:44:26.429Z,11.50
2019-04-04T18:46:54.713Z,12.43
2019-04-04T18:49:23.080Z,10.77
2019-04-04T18:51:51.409Z,9.10
2019-04-04T18:54:19.691Z,13.30
2019-04-04T18:56:48.012Z,10.73
2019-04-04T18:59:16.325Z,13.63
2019-04-04T19:01:45.134Z,11.93
2019-04-04T19:04:13.442Z,13.83
2019-04-04T19:06:42.148Z,13.17
2019-04-04T19:09:15.045Z,17.30
2019-04-04T19:11:42.164Z,20.07
2019-04-04T19:14:10.590Z,17.50
2019-04-04T19:16:38.875Z,14.27
2019-04-04T19:19:07.235Z,17.33
2019-04-04T19:21:35.637Z,18.80
2019-04-04T19:24:03.995Z,15.80
2019-04-04T19:26:32.465Z,18.47
2019-04-04T19:29:03.021Z,18.67
2019-04-04T19:31:31.305Z,16.20
2019-04-04T19:33:59.596Z,19.77
2019-04-04T19:36:27.914Z,22.30
2019-04-04T19:38:56.229Z,14.63
2019-04-04T19:41:24.541Z,18.53
2019-04-04T19:43:52.831Z,18.77
2019-04-04T19:46:21.290Z,21.30
2019-04-04T19:48:49.579Z,21.77
2019-04-04T19:51:17.878Z,18.13
2019-04-04T19:53:46.187Z,16.83
2019-04-04T19:56:14.718Z,24.93
2019-04-04T19:58:43.004Z,21.43
2019-04-04T20:01:11.292Z,17.50
2019-04-04T20:03:39.801Z,19.60
2019-04-04T20:06:08.081Z,19.20
2019-04-04T20:08:36.361Z,25.90
2019-04-04T20:11:04.679Z,18.97
2019-04-04T20:13:33.043Z,22.07
2019-04-04T20:16:01.508Z,20.57
2019-04-04T20:18:29.791Z,21.67
2019-04-04T20:20:58.441Z,24.07
2019-04-04T20:23:26.724Z,25.50
2019-04-04T20:25:55.075Z,24.93
2019-04-04T20:28:23.366Z,21.30
2019-04-04T20:30:51.651Z,21.43
2019-04-04T20:33:20.724Z,20.07
2019-04-04T20:35:49.042Z,24.00
2019-04-04T20:38:17.388Z,19.37
2019-04-04T20:40:45.724Z,24.70
2019-04-04T20:43:14.016Z,20.00
2019-04-04T20:45:42.382Z,26.87
2019-04-04T20:48:10.851Z,20.17
2019-04-04T20:50:39.149Z,21.50
2019-04-04T20:53:07.435Z,20.10
2019-04-04T20:55:35.765Z,23.77
2019-04-04T20:58:04.044Z,23.00
2019-04-04T21:00:32.426Z,25.33
2019-04-04T21:03:00.991Z,18.23
2019-04-04T21:05:29.363Z,18.57
2019-04-04T21:07:57.664Z,20.67
2019-04-04T21:10:25.955Z,17.23
2019-04-04T21:12:54.271Z,19.43
2019-04-04T21:15:22.602Z,22.50
2019-04-04T21:17:50.908Z,17.00
2019-04-04T21:20:19.963Z,16.27
2019-04-04T21:22:48.369Z,18.50
2019-04-04T21:25:16.680Z,15.63
2019-04-04T21:27:44.993Z,15.27
2019-04-04T21:30:13.304Z,12.80
2019-04-04T21:32:41.583Z,13.53
2019-04-04T21:35:09.878Z,13.37
2019-04-04T21:37:38.192Z,15.57
2019-04-04T21:40:06.478Z,14.83
2019-04-04T21:42:35.465Z,21.20
2019-04-04T21:45:05.491Z,21.00
2019-04-04T21:47:33.776Z,19.40
2019-04-04T21:50:02.093Z,16.40
2019-04-04T21:52:30.574Z,10.70
2019-04-04T21:54:58.866Z,12.43
2019-04-04T21:57:27.727Z,11.80
2019-04-04T21:59:56.043Z,14.30
2019-04-04T22:02:24.325Z,11.20
2019-04-04T22:04:52.750Z,13.17
2019-04-04T22:07:21.038Z,11.63
2019-04-04T22:09:49.568Z,14.03
2019-04-04T22:12:17.922Z,9.63
2019-04-04T22:14:46.305Z,9.93
2019-04-04T22:17:14.587Z,12.67
2019-04-04T22:19:42.949Z,11.90
2019-04-04T22:22:11.256Z,12.57
2019-04-04T22:24:39.589Z,13.70
2019-04-04T22:27:07.877Z,15.50
2019-04-04T22:29:36.189Z,11.87
2019-04-04T22:32:04.472Z,14.10
2019-04-04T22:34:33.450Z,13.53
2019-04-04T22:37:01.794Z,12.20
2019-04-04T22:39:30.078Z,13.80
2019-04-04T22:41:58.371Z,13.53
2019-04-04T22:44:34.541Z,15.40
2019-04-04T22:46:56.693Z,12.57
2019-04-04T22:49:25.081Z,15.57
2019-04-04T22:51:53.374Z,13.97
2019-04-04T22:54:21.687Z,17.00
2019-04-04T22:56:49.964Z,14.47
2019-04-04T22:59:18.283Z,17.17
2019-04-04T23:01:46.574Z,16.60
2019-04-04T23:04:16.945Z,22.47
2019-04-04T23:06:45.323Z,19.87
2019-04-04T23:09:13.642Z,23.80
2019-04-04T23:11:42.016Z,19.53
2019-04-04T23:14:10.318Z,19.60
2019-04-04T23:16:38.609Z,22.97
2019-04-04T23:19:06.920Z,25.23
2019-04-04T23:21:35.216Z,26.30
2019-04-04T23:24:03.592Z,20.87
2019-04-04T23:26:31.874Z,21.57
2019-04-04T23:29:00.831Z,26.80
2019-04-04T23:31:29.140Z,23.87
2019-04-04T23:33:57.434Z,25.43
2019-04-04T23:36:34.975Z,31.67
2019-04-04T23:38:55.853Z,23.97
2019-04-04T23:41:24.146Z,26.23
2019-04-04T23:43:52.430Z,23.20
2019-04-04T23:46:21.012Z,25.03
2019-04-04T23:48:49.299Z,27.73
2019-04-04T23:51:17.679Z,24.13
2019-04-04T23:53:45.974Z,27.53
2019-04-04T23:56:14.286Z,34.67
2019-04-04T23:58:42.603Z,31.93
